Accueil
METAR-TAF:

METAR-TAF

Aéroports :

Taunton Municipal Airport (King Field)

Taunton, Massachusetts, États-Unis

latitude: 41-52-32N, longitude: 071-01-16W, altitude: 13 m

Observation

Le bulletin a été fait il y a 36 minutes, à 17:05 UTC
Vent 7 kt de sud/sud-ouest, variant entre sud/sud-est et ouest/sud-ouest
Température 22°C
Humidité 78%
Pression 1012 hPa
Visibilité: 16.1 km
Nuages fragmentés à une hauteur de 1000 ft
Nuages fragmentés à une hauteur de 1900 ft

METAR: KTAN 201705Z AUTO 20007KT 150V240 10SM BKN010 BKN019 22/18 A2987 RMK AO2 CIG 008V013 T02220178

Heure: 13:41 (17:41 UTC)


TAF: absent

Observations et prévisions météorologiques de plus de 4000 aéroports (messages METAR et TAF).

Les stations disponibles sont représentées par des disques jaunes et rouges sur la carte.

Passer la souris dessus pour voir le nom de la station.

Cliquer dessus pour voir les observations et prévisions météorologiques.

Pour changer de carte: cliquez sur les boutons verts avec une croix noire pour zoomer, sur le bouton vert avec un tiret pour effectuer un zoom arrière, ou sur les flèches vertes pour les cartes adjacentes.


METAR-TAF: